sensor_id;sensor_type;location;lat;lon;timestamp;temperature;humidity
15967;DHT22;15175;48.154;11.534;2022-10-19T00:00:45;16.80;99.90
15967;DHT22;15175;48.154;11.534;2022-10-19T00:03:12;16.90;99.90
15967;DHT22;15175;48.154;11.534;2022-10-19T00:05:39;16.90;99.90
15967;DHT22;15175;48.154;11.534;2022-10-19T00:08:06;16.90;99.90
15967;DHT22;15175;48.154;11.534;2022-10-19T00:10:38;16.90;99.90
15967;DHT22;15175;48.154;11.534;2022-10-19T00:13:05;16.90;99.90
15967;DHT22;15175;48.154;11.534;2022-10-19T00:15:32;16.90;99.90
15967;DHT22;15175;48.154;11.534;2022-10-19T00:17:59;16.90;99.90
15967;DHT22;15175;48.154;11.534;2022-10-19T00:20:26;16.90;99.90
15967;DHT22;15175;48.154;11.534;2022-10-19T00:22:53;16.90;99.90
15967;DHT22;15175;48.154;11.534;2022-10-19T00:25:20;16.90;99.90
15967;DHT22;15175;48.154;11.534;2022-10-19T00:27:49;16.90;99.90
15967;DHT22;15175;48.154;11.534;2022-10-19T00:30:16;16.90;99.90
15967;DHT22;15175;48.154;11.534;2022-10-19T00:32:43;16.90;99.90
15967;DHT22;15175;48.154;11.534;2022-10-19T00:35:10;16.90;99.90
15967;DHT22;15175;48.154;11.534;2022-10-19T00:37:37;16.90;99.90
15967;DHT22;15175;48.154;11.534;2022-10-19T00:40:05;16.90;99.90
15967;DHT22;15175;48.154;11.534;2022-10-19T00:42:32;16.90;99.90
15967;DHT22;15175;48.154;11.534;2022-10-19T00:45:05;16.90;99.90
15967;DHT22;15175;48.154;11.534;2022-10-19T00:47:33;16.90;99.90
15967;DHT22;15175;48.154;11.534;2022-10-19T00:50:00;16.90;99.90
15967;DHT22;15175;48.154;11.534;2022-10-19T00:52:28;17.00;99.90
15967;DHT22;15175;48.154;11.534;2022-10-19T00:54:57;16.90;99.90
15967;DHT22;15175;48.154;11.534;2022-10-19T00:57:27;17.00;99.90
15967;DHT22;15175;48.154;11.534;2022-10-19T00:59:55;17.00;99.90
15967;DHT22;15175;48.154;11.534;2022-10-19T01:02:24;17.00;99.90
15967;DHT22;15175;48.154;11.534;2022-10-19T01:04:52;17.00;99.90
15967;DHT22;15175;48.154;11.534;2022-10-19T01:07:20;17.00;99.90
15967;DHT22;15175;48.154;11.534;2022-10-19T01:09:47;17.00;99.90
15967;DHT22;15175;48.154;11.534;2022-10-19T01:15:22;17.00;99.90
15967;DHT22;15175;48.154;11.534;2022-10-19T01:18:01;16.90;99.90
15967;DHT22;15175;48.154;11.534;2022-10-19T01:20:59;16.90;99.90
15967;DHT22;15175;48.154;11.534;2022-10-19T01:24:21;16.90;99.90
15967;DHT22;15175;48.154;11.534;2022-10-19T01:30:07;16.90;99.90
15967;DHT22;15175;48.154;11.534;2022-10-19T01:32:50;16.90;99.90
15967;DHT22;15175;48.154;11.534;2022-10-19T01:35:26;16.90;99.90
15967;DHT22;15175;48.154;11.534;2022-10-19T01:38:04;16.90;99.90
15967;DHT22;15175;48.154;11.534;2022-10-19T01:40:40;16.90;99.90
15967;DHT22;15175;48.154;11.534;2022-10-19T01:43:12;16.80;99.90
15967;DHT22;15175;48.154;11.534;2022-10-19T01:45:48;16.80;99.90
15967;DHT22;15175;48.154;11.534;2022-10-19T01:48:19;16.80;99.90
15967;DHT22;15175;48.154;11.534;2022-10-19T01:50:51;16.80;99.90
15967;DHT22;15175;48.154;11.534;2022-10-19T01:53:20;16.80;99.90
15967;DHT22;15175;48.154;11.534;2022-10-19T01:55:50;16.80;99.90
15967;DHT22;15175;48.154;11.534;2022-10-19T01:58:22;16.80;99.90
15967;DHT22;15175;48.154;11.534;2022-10-19T02:00:53;16.80;99.90
15967;DHT22;15175;48.154;11.534;2022-10-19T02:03:22;16.80;99.90
15967;DHT22;15175;48.154;11.534;2022-10-19T02:05:51;16.80;99.90
15967;DHT22;15175;48.154;11.534;2022-10-19T02:08:22;16.80;99.90
15967;DHT22;15175;48.154;11.534;2022-10-19T02:10:51;16.80;99.90
15967;DHT22;15175;48.154;11.534;2022-10-19T02:13:19;16.80;99.90
15967;DHT22;15175;48.154;11.534;2022-10-19T02:15:49;16.80;99.90
15967;DHT22;15175;48.154;11.534;2022-10-19T02:18:24;16.80;99.90
15967;DHT22;15175;48.154;11.534;2022-10-19T02:20:52;16.80;99.90
15967;DHT22;15175;48.154;11.534;2022-10-19T02:23:22;16.80;99.90
15967;DHT22;15175;48.154;11.534;2022-10-19T02:25:49;16.80;99.90
15967;DHT22;15175;48.154;11.534;2022-10-19T02:28:17;16.80;99.90
15967;DHT22;15175;48.154;11.534;2022-10-19T02:30:44;16.80;99.90
15967;DHT22;15175;48.154;11.534;2022-10-19T02:33:11;16.80;99.90
15967;DHT22;15175;48.154;11.534;2022-10-19T02:35:40;16.80;99.90
15967;DHT22;15175;48.154;11.534;2022-10-19T02:38:09;16.80;99.90
15967;DHT22;15175;48.154;11.534;2022-10-19T02:40:40;16.80;99.90
15967;DHT22;15175;48.154;11.534;2022-10-19T02:43:11;16.80;99.90
15967;DHT22;15175;48.154;11.534;2022-10-19T02:45:42;16.80;99.90
15967;DHT22;15175;48.154;11.534;2022-10-19T02:48:12;16.80;99.90
15967;DHT22;15175;48.154;11.534;2022-10-19T02:50:44;16.80;99.90
15967;DHT22;15175;48.154;11.534;2022-10-19T02:53:12;16.80;99.90
15967;DHT22;15175;48.154;11.534;2022-10-19T02:55:39;16.70;99.90
15967;DHT22;15175;48.154;11.534;2022-10-19T02:58:06;16.50;99.90
15967;DHT22;15175;48.154;11.534;2022-10-19T03:00:33;16.50;99.90
15967;DHT22;15175;48.154;11.534;2022-10-19T03:03:00;16.50;99.90
15967;DHT22;15175;48.154;11.534;2022-10-19T03:05:28;16.60;99.90
15967;DHT22;15175;48.154;11.534;2022-10-19T03:07:56;16.50;99.90
15967;DHT22;15175;48.154;11.534;2022-10-19T03:10:23;16.50;99.90
15967;DHT22;15175;48.154;11.534;2022-10-19T03:12:50;16.50;99.90
15967;DHT22;15175;48.154;11.534;2022-10-19T03:15:18;16.60;99.90
15967;DHT22;15175;48.154;11.534;2022-10-19T03:17:45;16.60;99.90
15967;DHT22;15175;48.154;11.534;2022-10-19T03:20:12;16.60;99.90
15967;DHT22;15175;48.154;11.534;2022-10-19T03:22:39;16.60;99.90
15967;DHT22;15175;48.154;11.534;2022-10-19T03:25:08;16.60;99.90
15967;DHT22;15175;48.154;11.534;2022-10-19T03:27:36;16.60;99.90
15967;DHT22;15175;48.154;11.534;2022-10-19T03:30:03;16.60;99.90
15967;DHT22;15175;48.154;11.534;2022-10-19T03:32:30;16.60;99.90
15967;DHT22;15175;48.154;11.534;2022-10-19T03:34:57;16.60;99.90
15967;DHT22;15175;48.154;11.534;2022-10-19T03:37:24;16.60;99.90
15967;DHT22;15175;48.154;11.534;2022-10-19T03:39:51;16.60;99.90
15967;DHT22;15175;48.154;11.534;2022-10-19T03:42:19;16.60;99.90
15967;DHT22;15175;48.154;11.534;2022-10-19T03:44:47;16.50;99.90
15967;DHT22;15175;48.154;11.534;2022-10-19T03:47:14;16.50;99.90
15967;DHT22;15175;48.154;11.534;2022-10-19T03:49:41;16.40;99.90
15967;DHT22;15175;48.154;11.534;2022-10-19T03:52:08;16.40;99.90
15967;DHT22;15175;48.154;11.534;2022-10-19T03:54:35;16.30;99.90
15967;DHT22;15175;48.154;11.534;2022-10-19T03:57:02;16.30;99.90
15967;DHT22;15175;48.154;11.534;2022-10-19T03:59:31;16.30;99.90
15967;DHT22;15175;48.154;11.534;2022-10-19T04:01:58;16.30;99.90
15967;DHT22;15175;48.154;11.534;2022-10-19T04:04:25;16.40;99.90
15967;DHT22;15175;48.154;11.534;2022-10-19T04:06:52;16.30;99.90
15967;DHT22;15175;48.154;11.534;2022-10-19T04:09:20;16.30;99.90
15967;DHT22;15175;48.154;11.534;2022-10-19T04:11:48;16.40;99.90
15967;DHT22;15175;48.154;11.534;2022-10-19T04:14:17;16.30;99.90
15967;DHT22;15175;48.154;11.534;2022-10-19T04:16:46;16.30;99.90
15967;DHT22;15175;48.154;11.534;2022-10-19T04:19:14;16.30;99.90
15967;DHT22;15175;48.154;11.534;2022-10-19T04:21:41;16.20;99.90
15967;DHT22;15175;48.154;11.534;2022-10-19T04:24:11;16.30;99.90
15967;DHT22;15175;48.154;11.534;2022-10-19T04:26:40;16.30;99.90
15967;DHT22;15175;48.154;11.534;2022-10-19T04:29:09;16.30;99.90
15967;DHT22;15175;48.154;11.534;2022-10-19T04:31:36;16.30;99.90
15967;DHT22;15175;48.154;11.534;2022-10-19T04:34:06;16.30;99.90
15967;DHT22;15175;48.154;11.534;2022-10-19T04:36:34;16.20;99.90
15967;DHT22;15175;48.154;11.534;2022-10-19T04:39:02;16.20;99.90
15967;DHT22;15175;48.154;11.534;2022-10-19T04:41:29;16.20;99.90
15967;DHT22;15175;48.154;11.534;2022-10-19T04:43:58;16.20;99.90
15967;DHT22;15175;48.154;11.534;2022-10-19T04:46:26;16.20;99.90
15967;DHT22;15175;48.154;11.534;2022-10-19T04:48:54;16.20;99.90
15967;DHT22;15175;48.154;11.534;2022-10-19T04:51:23;16.20;99.90
15967;DHT22;15175;48.154;11.534;2022-10-19T04:53:50;16.20;99.90
15967;DHT22;15175;48.154;11.534;2022-10-19T04:56:19;16.30;99.90
15967;DHT22;15175;48.154;11.534;2022-10-19T04:58:46;16.30;99.90
15967;DHT22;15175;48.154;11.534;2022-10-19T05:01:15;16.30;99.90
15967;DHT22;15175;48.154;11.534;2022-10-19T05:03:43;16.30;99.90
15967;DHT22;15175;48.154;11.534;2022-10-19T05:06:11;16.20;99.90
15967;DHT22;15175;48.154;11.534;2022-10-19T05:08:40;16.20;99.90
15967;DHT22;15175;48.154;11.534;2022-10-19T05:11:10;16.20;99.90
15967;DHT22;15175;48.154;11.534;2022-10-19T05:13:38;16.20;99.90
15967;DHT22;15175;48.154;11.534;2022-10-19T05:16:09;16.20;99.90
15967;DHT22;15175;48.154;11.534;2022-10-19T05:18:37;16.20;99.90
15967;DHT22;15175;48.154;11.534;2022-10-19T05:21:05;16.20;99.90
15967;DHT22;15175;48.154;11.534;2022-10-19T05:23:33;16.20;99.90
15967;DHT22;15175;48.154;11.534;2022-10-19T05:26:04;16.00;99.90
15967;DHT22;15175;48.154;11.534;2022-10-19T05:28:32;15.90;99.90
15967;DHT22;15175;48.154;11.534;2022-10-19T05:31:07;15.90;99.90
15967;DHT22;15175;48.154;11.534;2022-10-19T05:33:35;15.90;99.90
15967;DHT22;15175;48.154;11.534;2022-10-19T05:36:14;16.00;99.90
15967;DHT22;15175;48.154;11.534;2022-10-19T05:38:42;16.10;99.90
15967;DHT22;15175;48.154;11.534;2022-10-19T05:41:10;16.10;99.90
15967;DHT22;15175;48.154;11.534;2022-10-19T05:43:38;16.20;99.90
15967;DHT22;15175;48.154;11.534;2022-10-19T05:46:07;16.20;99.90
15967;DHT22;15175;48.154;11.534;2022-10-19T05:48:35;16.20;99.90
15967;DHT22;15175;48.154;11.534;2022-10-19T05:51:05;16.30;99.90
15967;DHT22;15175;48.154;11.534;2022-10-19T05:53:33;16.30;99.90
15967;DHT22;15175;48.154;11.534;2022-10-19T05:56:00;16.30;99.90
15967;DHT22;15175;48.154;11.534;2022-10-19T05:58:31;16.40;99.90
15967;DHT22;15175;48.154;11.534;2022-10-19T06:00:58;16.40;99.90
15967;DHT22;15175;48.154;11.534;2022-10-19T06:03:26;16.50;99.90
15967;DHT22;15175;48.154;11.534;2022-10-19T06:05:54;16.50;99.90
15967;DHT22;15175;48.154;11.534;2022-10-19T06:08:23;16.40;99.90
15967;DHT22;15175;48.154;11.534;2022-10-19T06:10:50;16.50;99.90
15967;DHT22;15175;48.154;11.534;2022-10-19T06:13:18;16.40;99.90
15967;DHT22;15175;48.154;11.534;2022-10-19T06:15:49;16.40;99.90
15967;DHT22;15175;48.154;11.534;2022-10-19T06:18:16;16.30;99.90
15967;DHT22;15175;48.154;11.534;2022-10-19T06:20:43;16.30;99.90
15967;DHT22;15175;48.154;11.534;2022-10-19T06:23:10;16.30;99.90
15967;DHT22;15175;48.154;11.534;2022-10-19T06:25:37;16.40;99.90
15967;DHT22;15175;48.154;11.534;2022-10-19T06:28:06;16.40;99.90
15967;DHT22;15175;48.154;11.534;2022-10-19T06:30:33;16.50;99.90
15967;DHT22;15175;48.154;11.534;2022-10-19T06:33:01;16.50;99.90
15967;DHT22;15175;48.154;11.534;2022-10-19T06:35:28;16.60;99.90
15967;DHT22;15175;48.154;11.534;2022-10-19T06:37:55;16.50;99.90
15967;DHT22;15175;48.154;11.534;2022-10-19T06:40:23;16.60;99.90
15967;DHT22;15175;48.154;11.534;2022-10-19T06:42:50;16.60;99.90
15967;DHT22;15175;48.154;11.534;2022-10-19T06:45:17;16.60;99.90
15967;DHT22;15175;48.154;11.534;2022-10-19T06:47:44;16.60;99.90
15967;DHT22;15175;48.154;11.534;2022-10-19T06:50:12;16.60;99.90
15967;DHT22;15175;48.154;11.534;2022-10-19T06:52:39;16.60;99.90
15967;DHT22;15175;48.154;11.534;2022-10-19T06:55:07;16.60;99.90
15967;DHT22;15175;48.154;11.534;2022-10-19T06:57:34;16.60;99.90
15967;DHT22;15175;48.154;11.534;2022-10-19T07:00:02;16.60;99.90
15967;DHT22;15175;48.154;11.534;2022-10-19T07:02:29;16.60;99.90
15967;DHT22;15175;48.154;11.534;2022-10-19T07:04:56;16.60;99.90
15967;DHT22;15175;48.154;11.534;2022-10-19T07:07:24;16.60;99.90
15967;DHT22;15175;48.154;11.534;2022-10-19T07:09:51;16.60;99.90
15967;DHT22;15175;48.154;11.534;2022-10-19T07:12:18;16.60;99.90
15967;DHT22;15175;48.154;11.534;2022-10-19T07:14:45;16.60;99.90
15967;DHT22;15175;48.154;11.534;2022-10-19T07:17:12;16.60;99.90
15967;DHT22;15175;48.154;11.534;2022-10-19T07:19:40;16.60;99.90
15967;DHT22;15175;48.154;11.534;2022-10-19T07:22:07;16.60;99.90
15967;DHT22;15175;48.154;11.534;2022-10-19T07:24:35;16.60;99.90
15967;DHT22;15175;48.154;11.534;2022-10-19T07:27:03;16.60;99.90
15967;DHT22;15175;48.154;11.534;2022-10-19T07:29:30;16.60;99.90
15967;DHT22;15175;48.154;11.534;2022-10-19T07:31:57;16.60;99.90
15967;DHT22;15175;48.154;11.534;2022-10-19T07:34:24;16.60;99.90
15967;DHT22;15175;48.154;11.534;2022-10-19T07:36:51;16.50;99.90
15967;DHT22;15175;48.154;11.534;2022-10-19T07:39:19;16.40;99.90
15967;DHT22;15175;48.154;11.534;2022-10-19T07:41:48;16.40;99.90
15967;DHT22;15175;48.154;11.534;2022-10-19T07:44:15;16.40;99.90
15967;DHT22;15175;48.154;11.534;2022-10-19T07:46:42;16.40;99.90
15967;DHT22;15175;48.154;11.534;2022-10-19T07:49:12;16.30;99.90
15967;DHT22;15175;48.154;11.534;2022-10-19T07:51:41;16.20;99.90
15967;DHT22;15175;48.154;11.534;2022-10-19T07:54:08;16.30;99.90
15967;DHT22;15175;48.154;11.534;2022-10-19T07:56:36;16.20;99.90
15967;DHT22;15175;48.154;11.534;2022-10-19T07:59:04;16.20;99.90
15967;DHT22;15175;48.154;11.534;2022-10-19T08:01:33;16.20;99.90
15967;DHT22;15175;48.154;11.534;2022-10-19T08:04:01;16.20;99.90
15967;DHT22;15175;48.154;11.534;2022-10-19T08:06:28;16.30;99.90
15967;DHT22;15175;48.154;11.534;2022-10-19T08:08:56;16.30;99.90
15967;DHT22;15175;48.154;11.534;2022-10-19T08:11:25;16.40;99.90
15967;DHT22;15175;48.154;11.534;2022-10-19T08:13:52;16.40;99.90
15967;DHT22;15175;48.154;11.534;2022-10-19T08:16:23;16.50;99.90
15967;DHT22;15175;48.154;11.534;2022-10-19T08:18:51;16.50;99.90
15967;DHT22;15175;48.154;11.534;2022-10-19T08:21:18;16.50;99.90
15967;DHT22;15175;48.154;11.534;2022-10-19T08:23:45;16.40;99.90
15967;DHT22;15175;48.154;11.534;2022-10-19T08:26:12;16.40;99.90
15967;DHT22;15175;48.154;11.534;2022-10-19T08:28:40;16.30;99.90
15967;DHT22;15175;48.154;11.534;2022-10-19T08:31:11;16.30;99.90
15967;DHT22;15175;48.154;11.534;2022-10-19T08:33:40;16.20;99.90
15967;DHT22;15175;48.154;11.534;2022-10-19T08:36:08;16.20;99.90
15967;DHT22;15175;48.154;11.534;2022-10-19T08:38:36;16.30;99.90
15967;DHT22;15175;48.154;11.534;2022-10-19T08:41:20;16.40;99.90
15967;DHT22;15175;48.154;11.534;2022-10-19T08:43:58;16.50;99.90
15967;DHT22;15175;48.154;11.534;2022-10-19T08:46:33;16.50;99.90
15967;DHT22;15175;48.154;11.534;2022-10-19T08:49:07;16.40;99.90
15967;DHT22;15175;48.154;11.534;2022-10-19T08:51:37;16.40;99.90
15967;DHT22;15175;48.154;11.534;2022-10-19T08:54:08;16.30;99.90
15967;DHT22;15175;48.154;11.534;2022-10-19T08:56:46;16.30;99.90
15967;DHT22;15175;48.154;11.534;2022-10-19T08:59:24;16.40;99.90
15967;DHT22;15175;48.154;11.534;2022-10-19T09:01:54;16.50;99.90
15967;DHT22;15175;48.154;11.534;2022-10-19T09:04:27;16.40;99.90
15967;DHT22;15175;48.154;11.534;2022-10-19T09:07:21;16.40;99.90
15967;DHT22;15175;48.154;11.534;2022-10-19T09:09:51;16.30;99.90
15967;DHT22;15175;48.154;11.534;2022-10-19T09:12:37;16.30;99.90
15967;DHT22;15175;48.154;11.534;2022-10-19T09:15:11;16.40;99.90
15967;DHT22;15175;48.154;11.534;2022-10-19T09:17:38;16.40;99.90
15967;DHT22;15175;48.154;11.534;2022-10-19T09:20:18;16.40;99.90
15967;DHT22;15175;48.154;11.534;2022-10-19T09:22:50;16.60;99.90
15967;DHT22;15175;48.154;11.534;2022-10-19T09:25:20;16.50;99.90
15967;DHT22;15175;48.154;11.534;2022-10-19T09:27:52;16.40;99.90
15967;DHT22;15175;48.154;11.534;2022-10-19T09:30:23;16.40;99.90
15967;DHT22;15175;48.154;11.534;2022-10-19T09:32:54;16.40;99.90
15967;DHT22;15175;48.154;11.534;2022-10-19T09:35:27;16.50;99.90
15967;DHT22;15175;48.154;11.534;2022-10-19T09:37:56;16.50;99.90
15967;DHT22;15175;48.154;11.534;2022-10-19T09:40:26;16.40;99.90
15967;DHT22;15175;48.154;11.534;2022-10-19T09:42:53;16.40;99.90
15967;DHT22;15175;48.154;11.534;2022-10-19T09:45:32;16.40;99.90
15967;DHT22;15175;48.154;11.534;2022-10-19T09:48:02;16.60;99.90
15967;DHT22;15175;48.154;11.534;2022-10-19T09:50:31;16.60;99.90
15967;DHT22;15175;48.154;11.534;2022-10-19T09:53:02;16.70;99.90
15967;DHT22;15175;48.154;11.534;2022-10-19T09:55:35;16.80;99.90
15967;DHT22;15175;48.154;11.534;2022-10-19T09:58:05;16.80;99.90
15967;DHT22;15175;48.154;11.534;2022-10-19T10:00:41;16.90;99.90
15967;DHT22;15175;48.154;11.534;2022-10-19T10:03:22;16.90;99.90
15967;DHT22;15175;48.154;11.534;2022-10-19T10:05:52;16.90;99.90
15967;DHT22;15175;48.154;11.534;2022-10-19T10:08:21;17.00;99.90
15967;DHT22;15175;48.154;11.534;2022-10-19T10:10:56;17.10;99.90
15967;DHT22;15175;48.154;11.534;2022-10-19T10:13:25;17.00;99.90
15967;DHT22;15175;48.154;11.534;2022-10-19T10:15:56;17.10;99.90
15967;DHT22;15175;48.154;11.534;2022-10-19T10:18:24;17.10;99.90
15967;DHT22;15175;48.154;11.534;2022-10-19T10:20:59;17.00;99.90
15967;DHT22;15175;48.154;11.534;2022-10-19T10:23:28;16.90;99.90
15967;DHT22;15175;48.154;11.534;2022-10-19T10:25:58;17.00;99.90
15967;DHT22;15175;48.154;11.534;2022-10-19T10:28:29;16.90;99.90
15967;DHT22;15175;48.154;11.534;2022-10-19T10:31:00;16.90;99.90
15967;DHT22;15175;48.154;11.534;2022-10-19T10:33:30;16.90;99.90
15967;DHT22;15175;48.154;11.534;2022-10-19T10:36:04;16.80;99.90
15967;DHT22;15175;48.154;11.534;2022-10-19T10:38:34;16.80;99.90
15967;DHT22;15175;48.154;11.534;2022-10-19T10:41:05;16.70;99.90
15967;DHT22;15175;48.154;11.534;2022-10-19T10:43:38;16.70;99.90
15967;DHT22;15175;48.154;11.534;2022-10-19T10:46:19;16.70;99.90
15967;DHT22;15175;48.154;11.534;2022-10-19T10:48:53;16.70;99.90
15967;DHT22;15175;48.154;11.534;2022-10-19T10:51:32;16.80;99.90
15967;DHT22;15175;48.154;11.534;2022-10-19T10:54:10;16.90;99.90
15967;DHT22;15175;48.154;11.534;2022-10-19T10:56:42;16.90;99.90
15967;DHT22;15175;48.154;11.534;2022-10-19T10:59:14;17.00;99.90
15967;DHT22;15175;48.154;11.534;2022-10-19T11:01:47;16.90;99.90
15967;DHT22;15175;48.154;11.534;2022-10-19T11:04:21;16.80;99.90
15967;DHT22;15175;48.154;11.534;2022-10-19T11:06:54;16.70;99.90
15967;DHT22;15175;48.154;11.534;2022-10-19T11:09:29;16.60;99.90
15967;DHT22;15175;48.154;11.534;2022-10-19T11:11:59;16.70;99.90
15967;DHT22;15175;48.154;11.534;2022-10-19T11:14:34;16.60;99.90
15967;DHT22;15175;48.154;11.534;2022-10-19T11:17:04;16.70;99.90
15967;DHT22;15175;48.154;11.534;2022-10-19T11:19:34;16.70;99.90
15967;DHT22;15175;48.154;11.534;2022-10-19T11:22:13;16.70;99.90
15967;DHT22;15175;48.154;11.534;2022-10-19T11:24:51;16.80;99.90
15967;DHT22;15175;48.154;11.534;2022-10-19T11:27:29;16.90;99.90
15967;DHT22;15175;48.154;11.534;2022-10-19T11:30:10;16.80;99.90
15967;DHT22;15175;48.154;11.534;2022-10-19T11:32:47;16.90;99.90
15967;DHT22;15175;48.154;11.534;2022-10-19T11:35:29;16.90;99.90
15967;DHT22;15175;48.154;11.534;2022-10-19T11:38:07;16.90;99.90
15967;DHT22;15175;48.154;11.534;2022-10-19T11:40:43;16.90;99.90
15967;DHT22;15175;48.154;11.534;2022-10-19T11:43:18;16.90;99.90
15967;DHT22;15175;48.154;11.534;2022-10-19T11:45:55;16.90;99.90
15967;DHT22;15175;48.154;11.534;2022-10-19T11:48:50;16.90;99.90
15967;DHT22;15175;48.154;11.534;2022-10-19T11:51:25;17.00;99.90
15967;DHT22;15175;48.154;11.534;2022-10-19T11:54:15;17.00;99.90
15967;DHT22;15175;48.154;11.534;2022-10-19T11:56:49;17.00;99.90
15967;DHT22;15175;48.154;11.534;2022-10-19T11:59:24;17.00;99.90
15967;DHT22;15175;48.154;11.534;2022-10-19T12:02:02;17.00;99.90
15967;DHT22;15175;48.154;11.534;2022-10-19T12:04:45;17.00;99.90
15967;DHT22;15175;48.154;11.534;2022-10-19T12:07:35;17.00;99.90
15967;DHT22;15175;48.154;11.534;2022-10-19T12:10:15;17.00;99.90
15967;DHT22;15175;48.154;11.534;2022-10-19T12:12:47;17.00;99.90
15967;DHT22;15175;48.154;11.534;2022-10-19T12:15:20;17.00;99.90
15967;DHT22;15175;48.154;11.534;2022-10-19T12:17:51;17.00;99.90
15967;DHT22;15175;48.154;11.534;2022-10-19T12:20:25;16.90;99.90
15967;DHT22;15175;48.154;11.534;2022-10-19T12:22:56;17.00;99.90
15967;DHT22;15175;48.154;11.534;2022-10-19T12:25:26;17.00;99.90
15967;DHT22;15175;48.154;11.534;2022-10-19T12:27:54;17.00;99.90
15967;DHT22;15175;48.154;11.534;2022-10-19T12:30:23;17.00;99.90
15967;DHT22;15175;48.154;11.534;2022-10-19T12:33:11;17.10;99.90
15967;DHT22;15175;48.154;11.534;2022-10-19T12:35:54;17.00;99.90
15967;DHT22;15175;48.154;11.534;2022-10-19T12:38:28;17.10;99.90
15967;DHT22;15175;48.154;11.534;2022-10-19T12:41:06;17.10;99.90
15967;DHT22;15175;48.154;11.534;2022-10-19T12:43:42;17.00;99.90
15967;DHT22;15175;48.154;11.534;2022-10-19T12:46:16;16.90;99.90
15967;DHT22;15175;48.154;11.534;2022-10-19T12:48:49;16.90;99.90
15967;DHT22;15175;48.154;11.534;2022-10-19T12:51:43;16.90;99.90
15967;DHT22;15175;48.154;11.534;2022-10-19T12:54:11;17.00;99.90
15967;DHT22;15175;48.154;11.534;2022-10-19T12:56:48;17.00;99.90
15967;DHT22;15175;48.154;11.534;2022-10-19T12:59:22;17.10;99.90
15967;DHT22;15175;48.154;11.534;2022-10-19T13:01:50;17.10;99.90
15967;DHT22;15175;48.154;11.534;2022-10-19T13:04:20;17.10;99.90
15967;DHT22;15175;48.154;11.534;2022-10-19T13:06:50;17.00;99.90
15967;DHT22;15175;48.154;11.534;2022-10-19T13:09:29;17.00;99.90
15967;DHT22;15175;48.154;11.534;2022-10-19T13:15:03;16.90;99.90
15967;DHT22;15175;48.154;11.534;2022-10-19T13:17:38;17.00;99.90
15967;DHT22;15175;48.154;11.534;2022-10-19T13:23:38;17.20;99.90
15967;DHT22;15175;48.154;11.534;2022-10-19T13:26:30;17.10;99.90
15967;DHT22;15175;48.154;11.534;2022-10-19T13:28:58;17.20;99.90
15967;DHT22;15175;48.154;11.534;2022-10-19T13:31:28;17.30;99.90
15967;DHT22;15175;48.154;11.534;2022-10-19T13:33:56;17.20;99.90
15967;DHT22;15175;48.154;11.534;2022-10-19T13:36:24;17.20;99.90
15967;DHT22;15175;48.154;11.534;2022-10-19T13:39:04;17.10;99.90
15967;DHT22;15175;48.154;11.534;2022-10-19T13:41:50;17.30;99.90
15967;DHT22;15175;48.154;11.534;2022-10-19T13:44:20;17.30;99.90
15967;DHT22;15175;48.154;11.534;2022-10-19T13:47:18;17.20;99.90
15967;DHT22;15175;48.154;11.534;2022-10-19T13:53:18;17.30;99.90
15967;DHT22;15175;48.154;11.534;2022-10-19T13:55:59;17.40;99.90
15967;DHT22;15175;48.154;11.534;2022-10-19T13:58:47;17.40;99.90
15967;DHT22;15175;48.154;11.534;2022-10-19T14:01:35;17.40;99.90
15967;DHT22;15175;48.154;11.534;2022-10-19T14:04:20;17.30;99.90
15967;DHT22;15175;48.154;11.534;2022-10-19T14:06:53;17.30;99.90
15967;DHT22;15175;48.154;11.534;2022-10-19T14:12:25;17.30;99.90
15967;DHT22;15175;48.154;11.534;2022-10-19T14:14:53;17.40;99.90
15967;DHT22;15175;48.154;11.534;2022-10-19T14:17:22;17.40;99.90
15967;DHT22;15175;48.154;11.534;2022-10-19T14:19:52;17.50;99.90
15967;DHT22;15175;48.154;11.534;2022-10-19T14:22:24;17.40;99.90
15967;DHT22;15175;48.154;11.534;2022-10-19T14:24:58;17.50;99.90
15967;DHT22;15175;48.154;11.534;2022-10-19T14:27:26;17.40;99.90
15967;DHT22;15175;48.154;11.534;2022-10-19T14:29:53;17.50;99.90
15967;DHT22;15175;48.154;11.534;2022-10-19T14:32:23;17.50;99.90
15967;DHT22;15175;48.154;11.534;2022-10-19T14:34:52;17.50;99.90
15967;DHT22;15175;48.154;11.534;2022-10-19T14:37:22;17.50;99.90
15967;DHT22;15175;48.154;11.534;2022-10-19T14:40:00;17.50;99.90
15967;DHT22;15175;48.154;11.534;2022-10-19T14:42:38;17.50;99.90
15967;DHT22;15175;48.154;11.534;2022-10-19T14:45:13;17.40;99.90
15967;DHT22;15175;48.154;11.534;2022-10-19T14:47:59;17.40;99.90
15967;DHT22;15175;48.154;11.534;2022-10-19T14:50:38;17.30;99.90
15967;DHT22;15175;48.154;11.534;2022-10-19T14:53:20;17.30;99.90
15967;DHT22;15175;48.154;11.534;2022-10-19T14:55:52;17.30;99.90
15967;DHT22;15175;48.154;11.534;2022-10-19T14:58:21;17.30;99.90
15967;DHT22;15175;48.154;11.534;2022-10-19T15:00:53;17.30;99.90
15967;DHT22;15175;48.154;11.534;2022-10-19T15:03:23;17.30;99.90
15967;DHT22;15175;48.154;11.534;2022-10-19T15:05:55;17.30;99.90
15967;DHT22;15175;48.154;11.534;2022-10-19T15:08:29;17.30;99.90
15967;DHT22;15175;48.154;11.534;2022-10-19T15:10:58;17.30;99.90
15967;DHT22;15175;48.154;11.534;2022-10-19T15:13:27;17.10;99.90
15967;DHT22;15175;48.154;11.534;2022-10-19T15:15:56;17.10;99.90
15967;DHT22;15175;48.154;11.534;2022-10-19T15:18:25;17.10;99.90
15967;DHT22;15175;48.154;11.534;2022-10-19T15:21:02;17.10;99.90
15967;DHT22;15175;48.154;11.534;2022-10-19T15:23:33;17.10;99.90
15967;DHT22;15175;48.154;11.534;2022-10-19T15:26:11;17.10;99.90
15967;DHT22;15175;48.154;11.534;2022-10-19T15:28:39;17.10;99.90
15967;DHT22;15175;48.154;11.534;2022-10-19T15:31:13;17.10;99.90
15967;DHT22;15175;48.154;11.534;2022-10-19T15:33:43;17.00;99.90
15967;DHT22;15175;48.154;11.534;2022-10-19T15:36:12;17.00;99.90
15967;DHT22;15175;48.154;11.534;2022-10-19T15:38:43;17.00;99.90
15967;DHT22;15175;48.154;11.534;2022-10-19T15:41:19;17.10;99.90
15967;DHT22;15175;48.154;11.534;2022-10-19T15:43:50;17.10;99.90
15967;DHT22;15175;48.154;11.534;2022-10-19T15:46:23;17.00;99.90
15967;DHT22;15175;48.154;11.534;2022-10-19T15:48:51;17.00;99.90
15967;DHT22;15175;48.154;11.534;2022-10-19T15:51:43;17.00;99.90
15967;DHT22;15175;48.154;11.534;2022-10-19T15:54:12;17.00;99.90
15967;DHT22;15175;48.154;11.534;2022-10-19T15:56:42;17.00;99.90
15967;DHT22;15175;48.154;11.534;2022-10-19T15:59:14;17.00;99.90